sensor_id;sensor_type;location;lat;lon;timestamp;P1;durP1;ratioP1;P2;durP2;ratioP2
19673;SDS011;9986;50.610;7.230;2023-06-19T00:01:21;5.10;;;4.60;;
19673;SDS011;9986;50.610;7.230;2023-06-19T00:04:00;5.03;;;4.63;;
19673;SDS011;9986;50.610;7.230;2023-06-19T00:06:37;5.87;;;4.80;;
19673;SDS011;9986;50.610;7.230;2023-06-19T00:09:15;4.97;;;4.57;;
19673;SDS011;9986;50.610;7.230;2023-06-19T00:11:59;5.10;;;4.60;;
19673;SDS011;9986;50.610;7.230;2023-06-19T00:17:19;5.03;;;4.30;;
19673;SDS011;9986;50.610;7.230;2023-06-19T00:20:06;5.00;;;4.50;;
19673;SDS011;9986;50.610;7.230;2023-06-19T00:25:20;4.60;;;4.20;;
19673;SDS011;9986;50.610;7.230;2023-06-19T00:27:58;4.57;;;4.17;;
19673;SDS011;9986;50.610;7.230;2023-06-19T00:30:35;5.97;;;4.73;;
19673;SDS011;9986;50.610;7.230;2023-06-19T00:33:13;5.22;;;4.72;;
19673;SDS011;9986;50.610;7.230;2023-06-19T00:35:51;4.50;;;4.13;;
19673;SDS011;9986;50.610;7.230;2023-06-19T00:41:05;5.63;;;4.93;;
19673;SDS011;9986;50.610;7.230;2023-06-19T00:43:43;4.57;;;4.10;;
19673;SDS011;9986;50.610;7.230;2023-06-19T00:48:56;5.30;;;4.80;;
19673;SDS011;9986;50.610;7.230;2023-06-19T00:51:40;4.93;;;4.53;;
19673;SDS011;9986;50.610;7.230;2023-06-19T00:54:19;5.57;;;5.00;;
19673;SDS011;9986;50.610;7.230;2023-06-19T01:02:14;6.93;;;5.17;;
19673;SDS011;9986;50.610;7.230;2023-06-19T01:04:54;5.90;;;5.40;;
19673;SDS011;9986;50.610;7.230;2023-06-19T01:07:40;5.67;;;5.17;;
19673;SDS011;9986;50.610;7.230;2023-06-19T01:10:26;7.40;;;5.53;;
19673;SDS011;9986;50.610;7.230;2023-06-19T01:13:06;5.73;;;5.23;;
19673;SDS011;9986;50.610;7.230;2023-06-19T01:18:21;6.00;;;5.50;;
19673;SDS011;9986;50.610;7.230;2023-06-19T01:21:09;5.93;;;5.40;;
19673;SDS011;9986;50.610;7.230;2023-06-19T01:23:53;5.27;;;4.87;;
19673;SDS011;9986;50.610;7.230;2023-06-19T01:26:31;5.77;;;5.23;;
19673;SDS011;9986;50.610;7.230;2023-06-19T01:34:27;4.93;;;4.50;;
19673;SDS011;9986;50.610;7.230;2023-06-19T01:39:44;4.90;;;4.57;;
19673;SDS011;9986;50.610;7.230;2023-06-19T01:42:22;5.73;;;4.83;;
19673;SDS011;9986;50.610;7.230;2023-06-19T01:45:11;5.13;;;4.73;;
19673;SDS011;9986;50.610;7.230;2023-06-19T01:47:48;6.23;;;5.63;;
19673;SDS011;9986;50.610;7.230;2023-06-19T01:50:26;5.10;;;4.60;;
19673;SDS011;9986;50.610;7.230;2023-06-19T01:53:04;5.63;;;4.87;;
19673;SDS011;9986;50.610;7.230;2023-06-19T01:55:41;5.37;;;4.87;;
19673;SDS011;9986;50.610;7.230;2023-06-19T01:58:27;6.50;;;5.07;;
19673;SDS011;9986;50.610;7.230;2023-06-19T02:01:13;6.17;;;5.20;;
19673;SDS011;9986;50.610;7.230;2023-06-19T02:03:51;5.33;;;4.83;;
19673;SDS011;9986;50.610;7.230;2023-06-19T02:09:03;5.47;;;5.07;;
19673;SDS011;9986;50.610;7.230;2023-06-19T02:11:41;5.90;;;5.30;;
19673;SDS011;9986;50.610;7.230;2023-06-19T02:14:19;6.17;;;5.60;;
19673;SDS011;9986;50.610;7.230;2023-06-19T02:19:32;5.60;;;5.10;;
19673;SDS011;9986;50.610;7.230;2023-06-19T02:22:17;5.37;;;4.97;;
19673;SDS011;9986;50.610;7.230;2023-06-19T02:25:01;5.30;;;4.90;;
19673;SDS011;9986;50.610;7.230;2023-06-19T02:30:15;5.50;;;5.00;;
19673;SDS011;9986;50.610;7.230;2023-06-19T02:32:52;5.53;;;5.03;;
19673;SDS011;9986;50.610;7.230;2023-06-19T02:38:12;5.30;;;4.87;;
19673;SDS011;9986;50.610;7.230;2023-06-19T02:40:50;5.97;;;4.87;;
19673;SDS011;9986;50.610;7.230;2023-06-19T02:43:28;5.27;;;4.77;;
19673;SDS011;9986;50.610;7.230;2023-06-19T02:46:06;5.20;;;4.70;;
19673;SDS011;9986;50.610;7.230;2023-06-19T02:51:26;5.13;;;4.63;;
19673;SDS011;9986;50.610;7.230;2023-06-19T02:56:39;5.10;;;4.67;;
19673;SDS011;9986;50.610;7.230;2023-06-19T02:59:16;5.27;;;4.67;;
19673;SDS011;9986;50.610;7.230;2023-06-19T03:04:29;5.97;;;5.07;;
19673;SDS011;9986;50.610;7.230;2023-06-19T03:07:07;5.77;;;5.17;;
19673;SDS011;9986;50.610;7.230;2023-06-19T03:09:44;5.00;;;4.60;;
19673;SDS011;9986;50.610;7.230;2023-06-19T03:12:22;5.40;;;4.93;;
19673;SDS011;9986;50.610;7.230;2023-06-19T03:15:00;5.27;;;4.77;;
19673;SDS011;9986;50.610;7.230;2023-06-19T03:17:37;6.63;;;4.87;;
19673;SDS011;9986;50.610;7.230;2023-06-19T03:20:15;5.70;;;5.10;;
19673;SDS011;9986;50.610;7.230;2023-06-19T03:22:53;6.50;;;5.90;;
19673;SDS011;9986;50.610;7.230;2023-06-19T03:25:30;6.23;;;5.67;;
19673;SDS011;9986;50.610;7.230;2023-06-19T03:28:14;7.50;;;6.20;;
19673;SDS011;9986;50.610;7.230;2023-06-19T03:33:34;6.80;;;6.17;;
19673;SDS011;9986;50.610;7.230;2023-06-19T03:36:15;7.67;;;5.03;;
19673;SDS011;9986;50.610;7.230;2023-06-19T03:38:58;7.33;;;5.50;;
19673;SDS011;9986;50.610;7.230;2023-06-19T03:41:36;7.77;;;5.70;;
19673;SDS011;9986;50.610;7.230;2023-06-19T03:44:14;6.37;;;5.73;;
19673;SDS011;9986;50.610;7.230;2023-06-19T03:46:51;6.77;;;6.17;;
19673;SDS011;9986;50.610;7.230;2023-06-19T03:49:29;6.67;;;6.07;;
19673;SDS011;9986;50.610;7.230;2023-06-19T03:52:13;6.23;;;5.63;;
19673;SDS011;9986;50.610;7.230;2023-06-19T03:54:51;6.70;;;5.03;;
19673;SDS011;9986;50.610;7.230;2023-06-19T03:57:35;6.70;;;6.07;;
19673;SDS011;9986;50.610;7.230;2023-06-19T04:00:13;6.20;;;5.60;;
19673;SDS011;9986;50.610;7.230;2023-06-19T04:02:57;6.10;;;5.60;;
19673;SDS011;9986;50.610;7.230;2023-06-19T04:05:43;5.90;;;5.30;;
19673;SDS011;9986;50.610;7.230;2023-06-19T04:08:21;5.73;;;5.23;;
19673;SDS011;9986;50.610;7.230;2023-06-19T04:11:07;5.43;;;5.03;;
19673;SDS011;9986;50.610;7.230;2023-06-19T04:13:52;6.40;;;5.80;;
19673;SDS011;9986;50.610;7.230;2023-06-19T04:16:29;6.30;;;5.70;;
19673;SDS011;9986;50.610;7.230;2023-06-19T04:19:07;6.30;;;5.70;;
19673;SDS011;9986;50.610;7.230;2023-06-19T04:21:47;6.40;;;5.90;;
19673;SDS011;9986;50.610;7.230;2023-06-19T04:27:00;11.30;;;10.13;;
19673;SDS011;9986;50.610;7.230;2023-06-19T04:29:46;7.93;;;7.23;;
19673;SDS011;9986;50.610;7.230;2023-06-19T04:32:33;6.80;;;6.20;;
19673;SDS011;9986;50.610;7.230;2023-06-19T04:37:46;5.20;;;4.77;;
19673;SDS011;9986;50.610;7.230;2023-06-19T04:40:24;6.43;;;5.53;;
19673;SDS011;9986;50.610;7.230;2023-06-19T04:43:02;8.13;;;4.90;;
19673;SDS011;9986;50.610;7.230;2023-06-19T04:45:41;10.93;;;4.80;;
19673;SDS011;9986;50.610;7.230;2023-06-19T04:48:25;5.33;;;4.60;;
19673;SDS011;9986;50.610;7.230;2023-06-19T04:51:09;6.53;;;6.03;;
19673;SDS011;9986;50.610;7.230;2023-06-19T04:53:49;6.80;;;5.37;;
19673;SDS011;9986;50.610;7.230;2023-06-19T04:56:26;5.50;;;4.70;;
19673;SDS011;9986;50.610;7.230;2023-06-19T04:59:13;6.30;;;5.00;;
19673;SDS011;9986;50.610;7.230;2023-06-19T05:01:50;9.47;;;7.00;;
19673;SDS011;9986;50.610;7.230;2023-06-19T05:04:28;5.87;;;5.10;;
19673;SDS011;9986;50.610;7.230;2023-06-19T05:07:14;5.47;;;4.80;;
19673;SDS011;9986;50.610;7.230;2023-06-19T05:09:52;5.20;;;4.80;;
19673;SDS011;9986;50.610;7.230;2023-06-19T05:12:35;5.57;;;5.07;;
19673;SDS011;9986;50.610;7.230;2023-06-19T05:15:13;5.00;;;4.60;;
19673;SDS011;9986;50.610;7.230;2023-06-19T05:17:57;7.63;;;5.10;;
19673;SDS011;9986;50.610;7.230;2023-06-19T05:20:41;5.80;;;5.30;;
19673;SDS011;9986;50.610;7.230;2023-06-19T05:23:24;5.40;;;4.90;;
19673;SDS011;9986;50.610;7.230;2023-06-19T05:26:02;5.93;;;5.33;;
19673;SDS011;9986;50.610;7.230;2023-06-19T05:28:46;5.67;;;5.17;;
19673;SDS011;9986;50.610;7.230;2023-06-19T05:31:23;5.80;;;5.30;;
19673;SDS011;9986;50.610;7.230;2023-06-19T05:36:36;6.20;;;5.00;;
19673;SDS011;9986;50.610;7.230;2023-06-19T05:39:20;5.47;;;4.93;;
19673;SDS011;9986;50.610;7.230;2023-06-19T05:41:57;5.13;;;4.63;;
19673;SDS011;9986;50.610;7.230;2023-06-19T05:47:12;5.13;;;4.73;;
19673;SDS011;9986;50.610;7.230;2023-06-19T05:49:57;5.73;;;5.03;;
19673;SDS011;9986;50.610;7.230;2023-06-19T05:52:43;5.87;;;4.80;;
19673;SDS011;9986;50.610;7.230;2023-06-19T05:55:29;7.33;;;4.80;;
19673;SDS011;9986;50.610;7.230;2023-06-19T05:58:08;5.37;;;4.77;;
19673;SDS011;9986;50.610;7.230;2023-06-19T06:00:46;5.73;;;5.10;;
19673;SDS011;9986;50.610;7.230;2023-06-19T06:03:24;6.07;;;4.73;;
19673;SDS011;9986;50.610;7.230;2023-06-19T06:08:37;4.80;;;4.40;;
19673;SDS011;9986;50.610;7.230;2023-06-19T06:11:21;5.23;;;4.40;;
19673;SDS011;9986;50.610;7.230;2023-06-19T06:13:59;4.20;;;3.73;;
19673;SDS011;9986;50.610;7.230;2023-06-19T06:16:42;4.37;;;4.00;;
19673;SDS011;9986;50.610;7.230;2023-06-19T06:19:21;6.97;;;3.80;;
19673;SDS011;9986;50.610;7.230;2023-06-19T06:21:59;6.30;;;3.80;;
19673;SDS011;9986;50.610;7.230;2023-06-19T06:24:36;3.80;;;3.50;;
19673;SDS011;9986;50.610;7.230;2023-06-19T06:27:14;8.80;;;7.73;;
19673;SDS011;9986;50.610;7.230;2023-06-19T06:29:52;4.40;;;3.33;;
19673;SDS011;9986;50.610;7.230;2023-06-19T06:32:30;3.80;;;3.50;;
19673;SDS011;9986;50.610;7.230;2023-06-19T06:35:08;4.20;;;3.50;;
19673;SDS011;9986;50.610;7.230;2023-06-19T06:37:45;5.20;;;3.40;;
19673;SDS011;9986;50.610;7.230;2023-06-19T06:40:23;3.60;;;3.30;;
19673;SDS011;9986;50.610;7.230;2023-06-19T06:43:07;3.77;;;3.30;;
19673;SDS011;9986;50.610;7.230;2023-06-19T06:45:44;3.60;;;3.30;;
19673;SDS011;9986;50.610;7.230;2023-06-19T06:48:22;3.93;;;3.37;;
19673;SDS011;9986;50.610;7.230;2023-06-19T06:50:59;3.77;;;3.47;;
19673;SDS011;9986;50.610;7.230;2023-06-19T06:53:39;2.50;;;2.30;;
19673;SDS011;9986;50.610;7.230;2023-06-19T07:01:34;3.93;;;2.47;;
19673;SDS011;9986;50.610;7.230;2023-06-19T07:04:18;2.70;;;2.50;;
19673;SDS011;9986;50.610;7.230;2023-06-19T07:06:55;3.43;;;2.33;;
19673;SDS011;9986;50.610;7.230;2023-06-19T07:09:33;2.43;;;2.23;;
19673;SDS011;9986;50.610;7.230;2023-06-19T07:12:17;2.20;;;2.00;;
19673;SDS011;9986;50.610;7.230;2023-06-19T07:14:55;2.70;;;2.40;;
19673;SDS011;9986;50.610;7.230;2023-06-19T07:17:32;2.90;;;2.20;;
19673;SDS011;9986;50.610;7.230;2023-06-19T07:22:52;2.20;;;2.00;;
19673;SDS011;9986;50.610;7.230;2023-06-19T07:25:30;2.00;;;1.80;;
19673;SDS011;9986;50.610;7.230;2023-06-19T07:28:08;2.30;;;1.70;;
19673;SDS011;9986;50.610;7.230;2023-06-19T07:30:46;2.30;;;2.10;;
19673;SDS011;9986;50.610;7.230;2023-06-19T07:33:33;3.17;;;2.70;;
19673;SDS011;9986;50.610;7.230;2023-06-19T07:36:10;4.37;;;2.13;;
19673;SDS011;9986;50.610;7.230;2023-06-19T07:41:25;2.27;;;1.97;;
19673;SDS011;9986;50.610;7.230;2023-06-19T07:44:03;3.22;;;1.65;;
19673;SDS011;9986;50.610;7.230;2023-06-19T07:46:41;1.87;;;1.57;;
19673;SDS011;9986;50.610;7.230;2023-06-19T07:49:19;2.17;;;1.97;;
19673;SDS011;9986;50.610;7.230;2023-06-19T07:54:33;2.93;;;1.80;;
19673;SDS011;9986;50.610;7.230;2023-06-19T07:57:11;2.13;;;1.70;;
19673;SDS011;9986;50.610;7.230;2023-06-19T07:59:54;2.17;;;1.50;;
19673;SDS011;9986;50.610;7.230;2023-06-19T08:05:14;2.00;;;1.77;;
19673;SDS011;9986;50.610;7.230;2023-06-19T08:07:59;2.17;;;1.73;;
19673;SDS011;9986;50.610;7.230;2023-06-19T08:10:37;2.00;;;1.80;;
19673;SDS011;9986;50.610;7.230;2023-06-19T08:13:15;3.20;;;1.80;;
19673;SDS011;9986;50.610;7.230;2023-06-19T08:15:53;2.53;;;1.70;;
19673;SDS011;9986;50.610;7.230;2023-06-19T08:18:31;1.70;;;1.60;;
19673;SDS011;9986;50.610;7.230;2023-06-19T08:21:08;1.83;;;1.73;;
19673;SDS011;9986;50.610;7.230;2023-06-19T08:23:52;2.58;;;2.22;;
19673;SDS011;9986;50.610;7.230;2023-06-19T08:28:59;2.08;;;1.62;;
19673;SDS011;9986;50.610;7.230;2023-06-19T08:31:37;1.17;;;1.17;;
19673;SDS011;9986;50.610;7.230;2023-06-19T08:36:51;1.60;;;1.50;;
19673;SDS011;9986;50.610;7.230;2023-06-19T08:39:31;2.85;;;1.80;;
19673;SDS011;9986;50.610;7.230;2023-06-19T08:42:18;1.47;;;1.37;;
19673;SDS011;9986;50.610;7.230;2023-06-19T08:45:01;1.83;;;1.70;;
19673;SDS011;9986;50.610;7.230;2023-06-19T08:50:15;2.90;;;1.60;;
19673;SDS011;9986;50.610;7.230;2023-06-19T08:52:54;1.62;;;1.50;;
19673;SDS011;9986;50.610;7.230;2023-06-19T08:55:32;1.80;;;1.67;;
19673;SDS011;9986;50.610;7.230;2023-06-19T09:03:37;2.03;;;1.50;;
19673;SDS011;9986;50.610;7.230;2023-06-19T09:06:24;1.80;;;1.47;;
19673;SDS011;9986;50.610;7.230;2023-06-19T09:09:02;2.62;;;1.77;;
19673;SDS011;9986;50.610;7.230;2023-06-19T09:11:54;3.77;;;1.87;;
19673;SDS011;9986;50.610;7.230;2023-06-19T09:17:11;2.27;;;1.82;;
19673;SDS011;9986;50.610;7.230;2023-06-19T09:22:24;2.00;;;1.80;;
19673;SDS011;9986;50.610;7.230;2023-06-19T09:25:10;5.42;;;1.70;;
19673;SDS011;9986;50.610;7.230;2023-06-19T09:27:47;2.05;;;1.62;;
19673;SDS011;9986;50.610;7.230;2023-06-19T09:30:26;1.77;;;1.67;;
19673;SDS011;9986;50.610;7.230;2023-06-19T09:33:07;1.80;;;1.70;;
19673;SDS011;9986;50.610;7.230;2023-06-19T09:41:09;3.15;;;1.90;;
19673;SDS011;9986;50.610;7.230;2023-06-19T09:46:23;2.47;;;2.17;;
19673;SDS011;9986;50.610;7.230;2023-06-19T09:49:09;1.67;;;1.57;;
19673;SDS011;9986;50.610;7.230;2023-06-19T09:51:48;1.70;;;1.60;;
19673;SDS011;9986;50.610;7.230;2023-06-19T09:54:34;2.25;;;1.65;;
19673;SDS011;9986;50.610;7.230;2023-06-19T09:57:20;2.65;;;1.70;;
19673;SDS011;9986;50.610;7.230;2023-06-19T09:59:58;4.97;;;4.47;;
19673;SDS011;9986;50.610;7.230;2023-06-19T10:05:16;3.25;;;1.72;;
19673;SDS011;9986;50.610;7.230;2023-06-19T10:08:02;1.75;;;1.65;;
19673;SDS011;9986;50.610;7.230;2023-06-19T10:10:46;2.45;;;1.70;;
19673;SDS011;9986;50.610;7.230;2023-06-19T10:13:34;2.17;;;2.02;;
19673;SDS011;9986;50.610;7.230;2023-06-19T10:16:20;2.00;;;1.90;;
19673;SDS011;9986;50.610;7.230;2023-06-19T10:18:58;1.70;;;1.60;;
19673;SDS011;9986;50.610;7.230;2023-06-19T10:21:44;1.92;;;1.72;;
19673;SDS011;9986;50.610;7.230;2023-06-19T10:24:28;3.92;;;2.40;;
19673;SDS011;9986;50.610;7.230;2023-06-19T10:27:06;3.05;;;2.10;;
19673;SDS011;9986;50.610;7.230;2023-06-19T10:29:53;3.70;;;3.40;;
19673;SDS011;9986;50.610;7.230;2023-06-19T10:32:37;2.12;;;1.92;;
19673;SDS011;9986;50.610;7.230;2023-06-19T10:37:57;3.00;;;2.77;;
19673;SDS011;9986;50.610;7.230;2023-06-19T10:40:35;2.58;;;2.33;;
19673;SDS011;9986;50.610;7.230;2023-06-19T10:43:13;2.17;;;1.82;;
19673;SDS011;9986;50.610;7.230;2023-06-19T10:45:56;3.50;;;1.70;;
19673;SDS011;9986;50.610;7.230;2023-06-19T10:51:10;2.02;;;1.90;;
19673;SDS011;9986;50.610;7.230;2023-06-19T10:53:55;1.92;;;1.82;;
19673;SDS011;9986;50.610;7.230;2023-06-19T10:56:42;1.60;;;1.50;;
19673;SDS011;9986;50.610;7.230;2023-06-19T10:59:22;2.27;;;2.00;;
19673;SDS011;9986;50.610;7.230;2023-06-19T11:01:59;2.10;;;1.90;;
19673;SDS011;9986;50.610;7.230;2023-06-19T11:04:46;1.70;;;1.60;;
19673;SDS011;9986;50.610;7.230;2023-06-19T11:10:07;3.95;;;1.80;;
19673;SDS011;9986;50.610;7.230;2023-06-19T11:15:34;3.25;;;1.77;;
19673;SDS011;9986;50.610;7.230;2023-06-19T11:20:44;3.52;;;2.05;;
19673;SDS011;9986;50.610;7.230;2023-06-19T11:23:30;3.70;;;1.90;;
19673;SDS011;9986;50.610;7.230;2023-06-19T11:26:09;1.75;;;1.65;;
19673;SDS011;9986;50.610;7.230;2023-06-19T11:28:51;1.65;;;1.55;;
19673;SDS011;9986;50.610;7.230;2023-06-19T11:31:29;1.98;;;1.80;;
19673;SDS011;9986;50.610;7.230;2023-06-19T11:34:06;2.40;;;2.20;;
19673;SDS011;9986;50.610;7.230;2023-06-19T11:39:27;2.10;;;2.00;;
19673;SDS011;9986;50.610;7.230;2023-06-19T11:42:06;2.17;;;1.95;;
19673;SDS011;9986;50.610;7.230;2023-06-19T11:44:56;2.60;;;2.00;;
19673;SDS011;9986;50.610;7.230;2023-06-19T11:47:34;2.17;;;2.05;;
19673;SDS011;9986;50.610;7.230;2023-06-19T11:50:17;2.22;;;2.02;;
19673;SDS011;9986;50.610;7.230;2023-06-19T11:52:56;2.67;;;2.05;;
19673;SDS011;9986;50.610;7.230;2023-06-19T11:55:33;2.20;;;2.00;;
19673;SDS011;9986;50.610;7.230;2023-06-19T11:58:20;2.52;;;1.92;;
19673;SDS011;9986;50.610;7.230;2023-06-19T12:01:06;2.67;;;2.12;;
19673;SDS011;9986;50.610;7.230;2023-06-19T12:06:26;3.60;;;2.00;;
19673;SDS011;9986;50.610;7.230;2023-06-19T12:09:10;2.42;;;2.05;;
19673;SDS011;9986;50.610;7.230;2023-06-19T12:11:48;2.65;;;2.33;;
19673;SDS011;9986;50.610;7.230;2023-06-19T12:14:25;2.87;;;1.85;;
19673;SDS011;9986;50.610;7.230;2023-06-19T12:17:11;2.70;;;1.98;;
19673;SDS011;9986;50.610;7.230;2023-06-19T12:19:57;2.62;;;2.42;;
19673;SDS011;9986;50.610;7.230;2023-06-19T12:22:41;4.55;;;2.10;;
19673;SDS011;9986;50.610;7.230;2023-06-19T12:25:19;1.92;;;1.82;;
19673;SDS011;9986;50.610;7.230;2023-06-19T12:27:56;2.42;;;2.25;;
19673;SDS011;9986;50.610;7.230;2023-06-19T12:30:42;2.30;;;2.12;;
19673;SDS011;9986;50.610;7.230;2023-06-19T12:33:20;8.63;;;7.75;;
19673;SDS011;9986;50.610;7.230;2023-06-19T12:36:04;2.17;;;2.08;;
19673;SDS011;9986;50.610;7.230;2023-06-19T12:41:26;2.60;;;2.40;;
19673;SDS011;9986;50.610;7.230;2023-06-19T12:44:04;2.25;;;1.92;;
19673;SDS011;9986;50.610;7.230;2023-06-19T12:46:42;2.30;;;2.10;;
19673;SDS011;9986;50.610;7.230;2023-06-19T12:49:19;3.55;;;2.10;;
19673;SDS011;9986;50.610;7.230;2023-06-19T12:51:57;2.37;;;2.05;;
19673;SDS011;9986;50.610;7.230;2023-06-19T12:54:35;2.22;;;1.92;;
19673;SDS011;9986;50.610;7.230;2023-06-19T12:57:21;5.65;;;2.52;;
19673;SDS011;9986;50.610;7.230;2023-06-19T12:59:59;2.15;;;1.95;;
19673;SDS011;9986;50.610;7.230;2023-06-19T13:02:42;3.22;;;2.10;;
19673;SDS011;9986;50.610;7.230;2023-06-19T13:07:56;2.87;;;2.12;;
19673;SDS011;9986;50.610;7.230;2023-06-19T13:10:34;2.27;;;2.17;;
19673;SDS011;9986;50.610;7.230;2023-06-19T13:16:00;2.45;;;2.25;;
19673;SDS011;9986;50.610;7.230;2023-06-19T13:18:43;1.90;;;1.65;;
19673;SDS011;9986;50.610;7.230;2023-06-19T13:21:21;2.45;;;2.25;;
19673;SDS011;9986;50.610;7.230;2023-06-19T13:24:05;3.08;;;2.00;;
19673;SDS011;9986;50.610;7.230;2023-06-19T13:26:49;2.12;;;2.00;;
19673;SDS011;9986;50.610;7.230;2023-06-19T13:29:33;3.30;;;2.27;;
19673;SDS011;9986;50.610;7.230;2023-06-19T13:34:46;3.67;;;2.00;;
19673;SDS011;9986;50.610;7.230;2023-06-19T13:40:02;3.02;;;1.85;;
19673;SDS011;9986;50.610;7.230;2023-06-19T13:42:47;3.45;;;1.90;;
19673;SDS011;9986;50.610;7.230;2023-06-19T13:45:24;3.02;;;2.15;;
19673;SDS011;9986;50.610;7.230;2023-06-19T13:48:09;3.65;;;2.00;;
19673;SDS011;9986;50.610;7.230;2023-06-19T13:50:53;2.17;;;1.98;;
19673;SDS011;9986;50.610;7.230;2023-06-19T13:56:07;1.90;;;1.80;;
19673;SDS011;9986;50.610;7.230;2023-06-19T13:58:47;1.82;;;1.72;;
19673;SDS011;9986;50.610;7.230;2023-06-19T14:01:25;2.30;;;2.10;;
19673;SDS011;9986;50.610;7.230;2023-06-19T14:04:05;2.20;;;2.10;;
19673;SDS011;9986;50.610;7.230;2023-06-19T14:09:19;2.40;;;2.20;;
19673;SDS011;9986;50.610;7.230;2023-06-19T14:11:57;2.22;;;2.02;;
19673;SDS011;9986;50.610;7.230;2023-06-19T14:14:35;3.50;;;1.90;;
19673;SDS011;9986;50.610;7.230;2023-06-19T14:17:13;2.98;;;1.95;;
19673;SDS011;9986;50.610;7.230;2023-06-19T14:22:29;3.80;;;2.15;;
19673;SDS011;9986;50.610;7.230;2023-06-19T14:27:43;2.77;;;2.58;;
19673;SDS011;9986;50.610;7.230;2023-06-19T14:30:20;2.37;;;2.17;;
19673;SDS011;9986;50.610;7.230;2023-06-19T14:33:04;3.10;;;2.20;;
19673;SDS011;9986;50.610;7.230;2023-06-19T14:35:42;2.47;;;2.22;;
19673;SDS011;9986;50.610;7.230;2023-06-19T14:40:50;3.17;;;2.30;;
19673;SDS011;9986;50.610;7.230;2023-06-19T14:43:28;3.08;;;2.05;;
19673;SDS011;9986;50.610;7.230;2023-06-19T14:46:14;4.25;;;2.27;;
19673;SDS011;9986;50.610;7.230;2023-06-19T14:48:52;2.25;;;1.87;;
19673;SDS011;9986;50.610;7.230;2023-06-19T14:54:04;2.20;;;2.00;;
19673;SDS011;9986;50.610;7.230;2023-06-19T14:56:42;2.62;;;2.40;;
19673;SDS011;9986;50.610;7.230;2023-06-19T14:59:20;2.87;;;2.45;;
19673;SDS011;9986;50.610;7.230;2023-06-19T15:02:05;2.50;;;2.30;;
19673;SDS011;9986;50.610;7.230;2023-06-19T15:04:43;2.27;;;2.15;;
19673;SDS011;9986;50.610;7.230;2023-06-19T15:09:55;2.60;;;2.30;;
19673;SDS011;9986;50.610;7.230;2023-06-19T15:15:10;5.67;;;2.52;;
19673;SDS011;9986;50.610;7.230;2023-06-19T15:17:53;4.08;;;3.67;;
19673;SDS011;9986;50.610;7.230;2023-06-19T15:20:31;2.58;;;2.20;;
19673;SDS011;9986;50.610;7.230;2023-06-19T15:23:16;2.37;;;2.20;;
19673;SDS011;9986;50.610;7.230;2023-06-19T15:28:30;2.30;;;2.10;;
19673;SDS011;9986;50.610;7.230;2023-06-19T15:31:09;2.60;;;2.35;;
19673;SDS011;9986;50.610;7.230;2023-06-19T15:33:47;2.10;;;1.77;;
19673;SDS011;9986;50.610;7.230;2023-06-19T15:36:25;3.62;;;2.25;;
19673;SDS011;9986;50.610;7.230;2023-06-19T15:39:03;1.85;;;1.75;;
19673;SDS011;9986;50.610;7.230;2023-06-19T15:41:40;2.25;;;2.10;;
19673;SDS011;9986;50.610;7.230;2023-06-19T15:44:21;3.40;;;2.05;;
19673;SDS011;9986;50.610;7.230;2023-06-19T15:46:58;2.33;;;1.80;;
19673;SDS011;9986;50.610;7.230;2023-06-19T15:49:36;4.12;;;2.20;;
19673;SDS011;9986;50.610;7.230;2023-06-19T15:52:14;3.35;;;1.90;;
19673;SDS011;9986;50.610;7.230;2023-06-19T15:54:57;2.35;;;2.15;;
19673;SDS011;9986;50.610;7.230;2023-06-19T15:57:35;2.35;;;2.12;;
19673;SDS011;9986;50.610;7.230;2023-06-19T16:00:19;3.12;;;1.85;;
19673;SDS011;9986;50.610;7.230;2023-06-19T16:05:32;2.50;;;2.00;;
19673;SDS011;9986;50.610;7.230;2023-06-19T16:10:46;2.12;;;1.98;;
19673;SDS011;9986;50.610;7.230;2023-06-19T16:13:30;2.00;;;1.80;;
19673;SDS011;9986;50.610;7.230;2023-06-19T16:16:14;2.95;;;1.90;;
19673;SDS011;9986;50.610;7.230;2023-06-19T16:18:45;2.40;;;1.87;;
19673;SDS011;9986;50.610;7.230;2023-06-19T16:21:28;2.72;;;1.90;;
19673;SDS011;9986;50.610;7.230;2023-06-19T16:24:09;4.10;;;2.00;;
19673;SDS011;9986;50.610;7.230;2023-06-19T16:26:47;3.98;;;2.25;;
19673;SDS011;9986;50.610;7.230;2023-06-19T16:29:24;4.30;;;2.10;;
19673;SDS011;9986;50.610;7.230;2023-06-19T16:32:03;4.22;;;2.27;;
19673;SDS011;9986;50.610;7.230;2023-06-19T16:37:17;3.15;;;2.22;;
19673;SDS011;9986;50.610;7.230;2023-06-19T16:39:55;2.12;;;1.87;;
19673;SDS011;9986;50.610;7.230;2023-06-19T16:45:09;4.30;;;2.10;;
19673;SDS011;9986;50.610;7.230;2023-06-19T16:47:55;2.37;;;2.17;;
19673;SDS011;9986;50.610;7.230;2023-06-19T16:50:33;2.20;;;2.05;;
19673;SDS011;9986;50.610;7.230;2023-06-19T16:53:17;2.02;;;1.90;;
19673;SDS011;9986;50.610;7.230;2023-06-19T16:55:48;2.75;;;2.08;;
19673;SDS011;9986;50.610;7.230;2023-06-19T16:58:42;2.20;;;2.00;;
19673;SDS011;9986;50.610;7.230;2023-06-19T17:01:20;2.15;;;1.95;;
19673;SDS011;9986;50.610;7.230;2023-06-19T17:03:57;2.17;;;2.08;;
19673;SDS011;9986;50.610;7.230;2023-06-19T17:06:41;2.58;;;1.92;;
19673;SDS011;9986;50.610;7.230;2023-06-19T17:09:19;2.58;;;2.27;;
19673;SDS011;9986;50.610;7.230;2023-06-19T17:11:57;2.45;;;2.25;;
19673;SDS011;9986;50.610;7.230;2023-06-19T17:14:36;2.20;;;2.08;;
19673;SDS011;9986;50.610;7.230;2023-06-19T17:17:14;2.45;;;2.33;;
19673;SDS011;9986;50.610;7.230;2023-06-19T17:19:51;2.60;;;2.40;;
19673;SDS011;9986;50.610;7.230;2023-06-19T17:22:30;3.58;;;2.15;;
19673;SDS011;9986;50.610;7.230;2023-06-19T17:25:14;2.60;;;2.10;;
19673;SDS011;9986;50.610;7.230;2023-06-19T17:27:58;2.50;;;2.30;;
19673;SDS011;9986;50.610;7.230;2023-06-19T17:33:12;2.30;;;2.10;;
19673;SDS011;9986;50.610;7.230;2023-06-19T17:38:26;2.95;;;2.60;;
19673;SDS011;9986;50.610;7.230;2023-06-19T17:41:03;2.25;;;2.05;;
19673;SDS011;9986;50.610;7.230;2023-06-19T17:43:41;2.17;;;1.98;;
19673;SDS011;9986;50.610;7.230;2023-06-19T17:46:19;2.17;;;2.08;;
19673;SDS011;9986;50.610;7.230;2023-06-19T17:48:58;2.10;;;1.90;;
19673;SDS011;9986;50.610;7.230;2023-06-19T17:51:36;2.52;;;2.00;;
19673;SDS011;9986;50.610;7.230;2023-06-19T17:54:13;2.90;;;2.15;;
19673;SDS011;9986;50.610;7.230;2023-06-19T17:56:57;2.15;;;2.05;;
19673;SDS011;9986;50.610;7.230;2023-06-19T17:59:35;2.45;;;2.25;;
19673;SDS011;9986;50.610;7.230;2023-06-19T18:02:19;2.08;;;1.98;;
19673;SDS011;9986;50.610;7.230;2023-06-19T18:07:32;2.20;;;2.00;;
19673;SDS011;9986;50.610;7.230;2023-06-19T18:10:10;2.65;;;2.12;;
19673;SDS011;9986;50.610;7.230;2023-06-19T18:12:47;2.00;;;1.90;;
19673;SDS011;9986;50.610;7.230;2023-06-19T18:15:31;2.00;;;1.90;;
19673;SDS011;9986;50.610;7.230;2023-06-19T18:18:08;2.22;;;2.02;;
19673;SDS011;9986;50.610;7.230;2023-06-19T18:20:39;3.55;;;2.27;;
19673;SDS011;9986;50.610;7.230;2023-06-19T18:23:17;2.05;;;1.95;;
19673;SDS011;9986;50.610;7.230;2023-06-19T18:25:56;3.20;;;2.58;;
19673;SDS011;9986;50.610;7.230;2023-06-19T18:28:39;2.60;;;2.40;;
19673;SDS011;9986;50.610;7.230;2023-06-19T18:33:52;2.47;;;2.27;;
19673;SDS011;9986;50.610;7.230;2023-06-19T18:36:30;2.10;;;1.90;;
19673;SDS011;9986;50.610;7.230;2023-06-19T18:39:14;2.62;;;2.25;;
19673;SDS011;9986;50.610;7.230;2023-06-19T18:41:52;2.67;;;2.37;;
19673;SDS011;9986;50.610;7.230;2023-06-19T18:44:29;2.12;;;2.02;;
19673;SDS011;9986;50.610;7.230;2023-06-19T18:47:13;4.30;;;2.27;;
19673;SDS011;9986;50.610;7.230;2023-06-19T18:49:51;2.45;;;2.17;;
19673;SDS011;9986;50.610;7.230;2023-06-19T18:52:29;2.10;;;2.00;;
19673;SDS011;9986;50.610;7.230;2023-06-19T18:55:12;3.20;;;2.40;;
19673;SDS011;9986;50.610;7.230;2023-06-19T18:57:52;3.15;;;2.00;;
19673;SDS011;9986;50.610;7.230;2023-06-19T19:00:36;3.10;;;2.40;;
19673;SDS011;9986;50.610;7.230;2023-06-19T19:03:19;4.72;;;2.00;;
19673;SDS011;9986;50.610;7.230;2023-06-19T19:05:57;2.02;;;1.82;;
19673;SDS011;9986;50.610;7.230;2023-06-19T19:08:41;3.45;;;2.22;;
19673;SDS011;9986;50.610;7.230;2023-06-19T19:11:18;4.10;;;2.58;;
19673;SDS011;9986;50.610;7.230;2023-06-19T19:13:56;4.25;;;2.30;;
19673;SDS011;9986;50.610;7.230;2023-06-19T19:16:34;7.62;;;2.62;;
19673;SDS011;9986;50.610;7.230;2023-06-19T19:19:18;5.05;;;2.65;;